Terminal Aerodrome Forecast
Issued by NWS

Home | Current Version | Previous Version | Text Only | Print | Product List | Glossary On
Versions: 1 2 3 4 5 6 7 8 9 10 11 12 13 14 15 16 17 18
000
FTUS42 TJSJ 271138
TAFISX
TAF
TISX 271138Z 2712/2812 07012KT P6SM FEW028 SCT050
     FM271300 10012KT P6SM FEW030 SCT050
     FM271600 13011KT P6SM VCSH FEW028 SCT035
     FM272300 06008KT P6SM FEW025=

USA.gov is the U.S. government's official web portal to all federal, state and local government web resources and services.